This is the latest recevied weather packets stored in our database for station/object JF7BTK-10. If no packets are shown the sender has not sent any weather packets the latest 10 day(s).
| Time | Temp. | Humidity | Pressure | Rain* | Wind** | Luminosity | Snow |
|---|---|---|---|---|---|---|---|
| 1787397120 | 23.33° C | 80% | 1011.9 hPa | 0 mm | - | - | - |
| 1787396220 | 23.89° C | 78% | 1011.8 hPa | 0 mm | - | - | - |
| 1787395320 | 23.89° C | 78% | 1011.7 hPa | 0 mm | - | - | - |
| 1787394422 | 24.44° C | 76% | 1011.7 hPa | 0 mm | - | - | - |
| 1787393521 | 25° C | 74% | 1011.4 hPa | 0 mm | - | - | - |
| 1787392621 | 25.56° C | 73% | 1011.3 hPa | 0 mm | - | - | - |
| 1787391721 | 25.56° C | 73% | 1011.1 hPa | 0 mm | - | - | - |
| 1787390821 | 26.11° C | 75% | 1011.2 hPa | 0 mm | - | - | - |
| 1787389921 | 26.67° C | 72% | 1011 hPa | 0 mm | - | - | - |
| 1787389020 | 27.78° C | 67% | 1010.6 hPa | 0 mm | - | - | - |
| 1787388122 | 28.33° C | 68% | 1010.8 hPa | 0 mm | - | - | - |
| 1787387222 | 28.33° C | 67% | 1010.7 hPa | 0 mm | - | - | - |
| 1787386320 | 28.33° C | 65% | 1010.7 hPa | 0 mm | - | - | - |
| 1787385422 | 29.44° C | 61% | 1010.6 hPa | 0 mm | - | - | - |
| 1787384521 | 29.44° C | 61% | 1010.5 hPa | 0 mm | - | - | - |
| 1787383620 | 30.56° C | 56% | 1010.3 hPa | 0 mm | - | - | - |
| 1787382722 | 29.44° C | 60% | 1010.3 hPa | 0 mm | - | - | - |
| 1787381822 | 30° C | 58% | 1010.6 hPa | 0 mm | - | - | - |
| 1787380921 | 30.56° C | 56% | 1010.3 hPa | 0 mm | - | - | - |
| 1787380021 | 30.56° C | 58% | 1010.2 hPa | 0 mm | - | - | - |
| 1787379121 | 30.56° C | 60% | 1010.2 hPa | 0 mm | - | - | - |
| 1787378220 | 29.44° C | 61% | 1010.2 hPa | 0 mm | - | - | - |
| 1787377321 | 30.56° C | 60% | 1010.1 hPa | 0 mm | - | - | - |
| 1787376422 | 30.56° C | 56% | 1010.1 hPa | 0 mm | - | - | - |
| 1787375522 | 30.56° C | 56% | 1010.1 hPa | 0 mm | - | - | - |
* Rain latest hour (hover to see other rain measurements)
** Current wind speed in m/s (hover to see current wind gust speed)